Time;durP1;ratioP1;P1;durP2;ratioP2;P2;SDS_P1;SDS_P2;PMS_P1;PMS_P2;Temp;Humidity;BMP_temperature;BMP_pressure;BME280_temperature;BME280_humidity;BME280_pressure;Samples;Min_cycle;Max_cycle;Signal;HPM_P1;HPM_P2
2021/12/29 00:00:10;;;;;;;408.17;110.88;;;;;;;8.03;100.00;99095.78;341360;28;861;-69
2021/12/29 00:00:26;;;;;;;413.73;112.90;;;;;;;8.03;100.00;99095.78;338451;29;1402;-69
2021/12/29 00:00:36;;;;;;;409.08;112.32;;;;;;;8.06;100.00;99095.66;337190;29;1348;-69
2021/12/29 00:00:46;;;;;;;400.40;111.68;;;;;;;8.07;100.00;99092.16;338549;29;854;-69
2021/12/29 00:00:57;;;;;;;399.97;112.47;;;;;;;8.09;100.00;99100.75;338774;29;921;-69
2021/12/29 00:01:07;;;;;;;395.02;111.07;;;;;;;8.09;100.00;99095.53;340053;29;1322;-69
2021/12/29 00:01:18;;;;;;;399.90;110.63;;;;;;;8.10;100.00;99094.63;339252;29;1138;-69
2021/12/29 00:01:28;;;;;;;404.10;111.63;;;;;;;8.10;100.00;99097.25;336860;29;862;-69
2021/12/29 00:01:38;;;;;;;408.50;113.17;;;;;;;8.09;100.00;99095.53;335317;29;1020;-69
2021/12/29 00:01:49;;;;;;;416.13;114.50;;;;;;;8.11;100.00;99104.16;339951;29;1907;-69
2021/12/29 00:01:59;;;;;;;416.60;114.57;;;;;;;8.10;100.00;99096.38;339985;29;826;-69
2021/12/29 00:02:09;;;;;;;412.70;112.20;;;;;;;8.09;100.00;99095.53;340080;29;929;-69
2021/12/29 00:02:20;;;;;;;399.75;108.95;;;;;;;8.10;100.00;99097.25;339788;28;1205;-71
2021/12/29 00:02:30;;;;;;;407.10;108.50;;;;;;;8.09;100.00;99090.31;341349;28;980;-69
2021/12/29 00:02:41;;;;;;;419.23;111.55;;;;;;;8.08;100.00;99096.44;341214;28;878;-69
2021/12/29 00:02:51;;;;;;;430.93;115.90;;;;;;;8.09;100.00;99095.53;341201;28;755;-69
2021/12/29 00:03:02;;;;;;;422.60;116.03;;;;;;;8.09;100.00;99094.69;338704;28;1310;-69
2021/12/29 00:03:12;;;;;;;413.55;114.00;;;;;;;8.08;100.00;99093.00;337376;29;866;-69
2021/12/29 00:03:23;;;;;;;408.83;111.70;;;;;;;8.06;100.00;99093.06;341295;28;806;-69
2021/12/29 00:03:33;;;;;;;437.63;118.67;;;;;;;8.04;100.00;99094.03;341229;28;1277;-69
2021/12/29 00:03:44;;;;;;;442.10;119.03;;;;;;;8.03;100.00;99098.38;340065;29;909;-69
2021/12/29 00:03:54;;;;;;;447.20;120.27;;;;;;;8.03;100.00;99101.00;338575;29;866;-69
2021/12/29 00:04:04;;;;;;;427.30;112.38;;;;;;;8.00;100.00;99096.75;338747;29;1377;-69
2021/12/29 00:04:15;;;;;;;442.50;112.33;;;;;;;7.98;100.00;99097.72;340002;29;1114;-69
2021/12/29 00:04:27;;;;;;;445.92;111.88;;;;;;;8.01;100.00;99092.38;339889;29;898;-69
2021/12/29 00:04:38;;;;;;;447.52;114.13;;;;;;;7.98;100.00;99092.50;337097;28;1300;-69
2021/12/29 00:04:48;;;;;;;434.08;118.10;;;;;;;7.95;100.00;99097.81;337263;29;871;-69
2021/12/29 00:04:59;;;;;;;466.17;119.80;;;;;;;7.92;100.00;99097.94;341297;28;1331;-69
2021/12/29 00:05:09;;;;;;;462.30;116.13;;;;;;;7.93;100.00;99095.28;340025;29;1040;-69
2021/12/29 00:05:19;;;;;;;461.20;111.00;;;;;;;7.94;100.00;99096.13;341058;28;873;-69
2021/12/29 00:05:30;;;;;;;426.17;107.57;;;;;;;7.96;100.00;99094.31;338785;29;952;-69
2021/12/29 00:05:40;;;;;;;419.03;107.77;;;;;;;7.96;100.00;99094.31;338645;29;932;-69
2021/12/29 00:05:51;;;;;;;422.88;110.10;;;;;;;7.93;100.00;99095.28;339882;28;1204;-69
2021/12/29 00:06:01;;;;;;;440.00;113.80;;;;;;;7.93;100.00;99099.63;339935;29;1299;-69
2021/12/29 00:06:11;;;;;;;453.17;116.40;;;;;;;7.93;100.00;99097.03;338790;29;802;-69
2021/12/29 00:06:22;;;;;;;441.40;115.70;;;;;;;7.94;100.00;99103.94;338296;29;1193;-70
2021/12/29 00:06:32;;;;;;;440.83;119.25;;;;;;;7.96;100.00;99094.31;338161;29;798;-70
2021/12/29 00:06:43;;;;;;;430.00;118.53;;;;;;;7.97;100.00;99096.00;340419;28;843;-70
2021/12/29 00:06:56;;;;;;;428.83;116.05;;;;;;;7.99;100.00;99104.63;338406;29;932;-70
2021/12/29 00:07:06;;;;;;;415.60;112.43;;;;;;;8.00;100.00;99091.53;339843;28;1448;-68
2021/12/29 00:07:17;;;;;;;423.23;115.17;;;;;;;8.00;100.00;99096.75;341235;28;1135;-69
2021/12/29 00:07:27;;;;;;;444.25;118.82;;;;;;;7.98;100.00;99098.56;340112;29;818;-69
2021/12/29 00:07:38;;;;;;;466.57;120.07;;;;;;;7.98;100.00;99095.94;340033;29;926;-69
2021/12/29 00:07:48;;;;;;;462.90;118.97;;;;;;;7.99;100.00;99094.19;339869;29;841;-69
2021/12/29 00:07:59;;;;;;;454.57;116.30;;;;;;;7.99;100.00;99099.41;338575;29;1598;-69
2021/12/29 00:08:09;;;;;;;450.85;116.45;;;;;;;7.97;100.00;99096.84;338649;29;755;-69
2021/12/29 00:08:19;;;;;;;467.13;117.50;;;;;;;7.96;100.00;99097.75;341168;28;922;-70
2021/12/29 00:08:30;;;;;;;475.60;119.47;;;;;;;7.97;100.00;99094.25;341264;28;1261;-70
2021/12/29 00:08:40;;;;;;;487.40;120.37;;;;;;;7.98;100.00;99095.09;340160;29;846;-70
2021/12/29 00:08:50;;;;;;;471.52;120.38;;;;;;;7.99;100.00;99096.81;339570;29;1407;-70
2021/12/29 00:09:02;;;;;;;453.00;119.50;;;;;;;7.98;100.00;99097.72;339907;29;1262;-70
2021/12/29 00:09:13;;;;;;;429.60;115.03;;;;;;;7.99;100.00;99100.25;338681;29;873;-70
2021/12/29 00:09:23;;;;;;;423.50;114.43;;;;;;;8.02;100.00;99096.69;340319;29;846;-70
2021/12/29 00:09:36;;;;;;;426.05;116.05;;;;;;;8.01;100.00;99102.81;338533;29;890;-70
2021/12/29 00:09:47;;;;;;;433.00;119.10;;;;;;;8.00;100.00;99103.72;338613;29;870;-70
2021/12/29 00:10:00;;;;;;;448.10;120.45;;;;;;;7.96;100.00;99099.53;341277;28;1368;-70
2021/12/29 00:10:12;;;;;;;481.40;122.57;;;;;;;7.94;100.00;99101.34;341311;28;905;-70
2021/12/29 00:10:22;;;;;;;505.15;125.25;;;;;;;7.94;100.00;99103.94;340175;29;842;-71
2021/12/29 00:10:33;;;;;;;500.20;124.73;;;;;;;7.92;100.00;99100.53;340007;29;1434;-70
2021/12/29 00:10:43;;;;;;;478.15;122.82;;;;;;;7.91;100.00;99101.44;339829;29;862;-70
2021/12/29 00:10:55;;;;;;;478.40;121.07;;;;;;;7.91;100.00;99101.44;339950;29;873;-70
2021/12/29 00:11:06;;;;;;;482.50;119.75;;;;;;;7.91;100.00;99104.91;337062;29;888;-70
2021/12/29 00:11:16;;;;;;;474.93;121.07;;;;;;;7.92;100.00;99104.00;340769;28;1349;-69
2021/12/29 00:11:27;;;;;;;473.75;122.95;;;;;;;7.91;100.00;99101.44;339496;28;873;-70
2021/12/29 00:11:40;;;;;;;455.88;121.30;;;;;;;7.92;100.00;99103.16;339418;28;917;-70
2021/12/29 00:11:51;;;;;;;440.92;115.95;;;;;;;7.93;100.00;99104.84;340017;28;1352;-70
2021/12/29 00:12:02;;;;;;;433.27;112.40;;;;;;;7.92;100.00;99104.00;342348;28;1330;-70
2021/12/29 00:12:14;;;;;;;426.03;113.50;;;;;;;7.92;100.00;99103.16;341147;28;814;-70
2021/12/29 00:12:26;;;;;;;417.75;113.45;;;;;;;7.95;100.00;99103.03;341119;28;1043;-70
2021/12/29 00:12:41;;;;;;;411.34;113.72;;;;;;;7.94;100.00;99106.53;341117;28;1009;-69
2021/12/29 00:12:53;;;;;;;445.10;115.95;;;;;;;7.93;100.00;99107.44;337059;29;1312;-69
2021/12/29 00:13:04;;;;;;;439.60;115.07;;;;;;;7.95;100.00;99105.63;339812;29;882;-69
2021/12/29 00:13:14;;;;;;;423.58;114.15;;;;;;;7.97;100.00;99106.44;338742;29;1057;-69
2021/12/29 00:13:28;;;;;;;403.70;111.63;;;;;;;7.99;100.00;99104.63;338611;28;1348;-69
2021/12/29 00:13:38;;;;;;;404.83;112.45;;;;;;;7.99;100.00;99099.41;340980;28;890;-69
2021/12/29 00:13:48;;;;;;;404.53;112.50;;;;;;;7.97;100.00;99101.22;341453;28;874;-69
2021/12/29 00:13:59;;;;;;;426.63;113.57;;;;;;;7.93;100.00;99102.25;338694;29;941;-69
2021/12/29 00:14:10;;;;;;;438.15;117.97;;;;;;;7.93;100.00;99097.88;337075;29;1328;-69
2021/12/29 00:14:20;;;;;;;445.03;119.83;;;;;;;7.94;100.00;99109.16;337498;29;791;-70
2021/12/29 00:14:31;;;;;;;431.63;119.90;;;;;;;7.94;100.00;99109.16;338825;29;1434;-69
2021/12/29 00:14:41;;;;;;;423.67;116.20;;;;;;;7.95;100.00;99110.84;339875;29;1016;-69
2021/12/29 00:14:55;;;;;;;425.67;117.10;;;;;;;7.93;100.00;99107.44;339853;29;811;-69
2021/12/29 00:15:06;;;;;;;443.35;116.25;;;;;;;7.91;100.00;99109.28;337090;29;1092;-69
2021/12/29 00:15:17;;;;;;;463.35;119.97;;;;;;;7.89;100.00;99103.25;339931;29;1467;-70
2021/12/29 00:15:28;;;;;;;451.60;118.83;;;;;;;7.87;100.00;99105.09;341004;28;827;-69
2021/12/29 00:15:38;;;;;;;463.40;121.95;;;;;;;7.87;100.00;99108.53;339995;29;881;-69
2021/12/29 00:15:56;;;;;;;448.65;119.03;;;;;;;7.87;100.00;99105.09;339959;29;814;-69
2021/12/29 00:16:07;;;;;;;419.20;114.72;;;;;;;7.88;100.00;99112.00;338436;29;842;-69
2021/12/29 00:16:17;;;;;;;429.85;116.90;;;;;;;7.87;100.00;99108.53;340511;28;801;-69
2021/12/29 00:16:29;;;;;;;431.67;118.17;;;;;;;7.89;100.00;99105.88;339254;28;869;-69
2021/12/29 00:16:39;;;;;;;434.38;120.40;;;;;;;7.90;100.00;99104.97;336915;29;849;-69
2021/12/29 00:16:50;;;;;;;421.43;117.97;;;;;;;7.91;100.00;99111.88;338530;28;1216;-69
2021/12/29 00:17:01;;;;;;;422.25;116.15;;;;;;;7.92;100.00;99103.16;336124;29;1289;-69
2021/12/29 00:17:11;;;;;;;423.27;113.90;;;;;;;7.91;100.00;99106.66;337351;29;846;-69
2021/12/29 00:17:22;;;;;;;424.47;112.87;;;;;;;7.90;100.00;99108.41;339848;29;970;-69
2021/12/29 00:17:32;;;;;;;425.48;112.43;;;;;;;7.90;100.00;99103.22;338376;29;913;-69
2021/12/29 00:17:44;;;;;;;421.48;110.60;;;;;;;7.89;100.00;99104.13;340145;28;1459;-69
2021/12/29 00:17:55;;;;;;;416.77;110.40;;;;;;;7.89;100.00;99109.31;339937;28;1341;-69
2021/12/29 00:18:05;;;;;;;421.45;111.78;;;;;;;7.87;100.00;99105.94;338844;29;991;-69
2021/12/29 00:18:16;;;;;;;426.50;114.93;;;;;;;7.88;100.00;99106.78;338588;29;827;-69
2021/12/29 00:18:31;;;;;;;419.27;116.65;;;;;;;7.87;100.00;99110.28;339913;29;932;-69
2021/12/29 00:18:42;;;;;;;456.33;116.80;;;;;;;7.90;100.00;99110.19;338735;29;842;-69
2021/12/29 00:18:52;;;;;;;464.45;115.95;;;;;;;7.90;100.00;99107.56;339979;29;1060;-69
2021/12/29 00:19:03;;;;;;;425.67;112.93;;;;;;;7.90;100.00;99110.19;339882;29;830;-70
2021/12/29 00:19:14;;;;;;;416.17;111.72;;;;;;;7.91;100.00;99101.44;338495;29;1039;-69
2021/12/29 00:19:24;;;;;;;405.85;110.93;;;;;;;7.92;100.00;99108.38;338450;29;1358;-69
2021/12/29 00:19:34;;;;;;;397.60;109.30;;;;;;;7.91;100.00;99109.28;338796;29;967;-69
2021/12/29 00:19:45;;;;;;;403.80;109.93;;;;;;;7.91;100.00;99110.13;341006;28;1226;-69
2021/12/29 00:19:55;;;;;;;407.77;111.13;;;;;;;7.89;100.00;99105.88;341197;28;869;-69
2021/12/29 00:20:06;;;;;;;436.73;116.53;;;;;;;7.86;100.00;99113.81;341166;28;848;-69
2021/12/29 00:20:18;;;;;;;440.75;117.85;;;;;;;7.87;100.00;99105.94;339768;29;925;-69
2021/12/29 00:20:30;;;;;;;428.27;114.28;;;;;;;7.90;100.00;99110.19;338589;29;862;-69
2021/12/29 00:20:40;;;;;;;410.80;111.50;;;;;;;7.91;100.00;99106.66;341095;28;1561;-69
2021/12/29 00:20:50;;;;;;;411.52;113.53;;;;;;;7.89;100.00;99108.47;341247;28;903;-69
2021/12/29 00:21:02;;;;;;;416.33;113.73;;;;;;;7.89;100.00;99104.13;341417;28;1540;-69
2021/12/29 00:21:14;;;;;;;414.58;112.15;;;;;;;7.89;100.00;99101.50;338658;29;909;-69
2021/12/29 00:21:26;;;;;;;407.10;111.65;;;;;;;7.92;100.00;99108.38;336717;29;972;-69
2021/12/29 00:21:37;;;;;;;411.30;111.82;;;;;;;7.92;100.00;99097.94;336803;29;1087;-69
2021/12/29 00:21:47;;;;;;;405.90;112.47;;;;;;;7.92;100.00;99108.38;342476;28;1910;-69
2021/12/29 00:21:57;;;;;;;407.90;111.90;;;;;;;7.92;100.00;99106.59;341181;28;1333;-69
2021/12/29 00:22:08;;;;;;;404.47;112.50;;;;;;;7.91;100.00;99107.50;341396;28;1200;-69
2021/12/29 00:22:18;;;;;;;442.02;113.80;;;;;;;7.88;100.00;99099.81;338658;29;1316;-69
2021/12/29 00:22:28;;;;;;;446.87;114.20;;;;;;;7.87;100.00;99103.31;339751;29;874;-70
2021/12/29 00:22:39;;;;;;;438.45;112.30;;;;;;;7.87;100.00;99097.25;341290;28;854;-69
2021/12/29 00:22:49;;;;;;;409.17;109.83;;;;;;;7.88;100.00;99101.56;338852;29;988;-69
2021/12/29 00:23:02;;;;;;;395.45;108.05;;;;;;;7.86;100.00;99093.81;337219;29;1195;-69
2021/12/29 00:23:12;;;;;;;396.67;108.80;;;;;;;7.85;100.00;99099.06;341090;28;1591;-69
2021/12/29 00:23:23;;;;;;;407.25;111.25;;;;;;;7.79;100.00;99096.72;340886;28;1441;-69
2021/12/29 00:23:33;;;;;;;426.63;114.40;;;;;;;7.78;100.00;99097.63;340741;28;1150;-69
2021/12/29 00:23:44;;;;;;;425.15;115.82;;;;;;;7.80;100.00;99098.44;338648;29;814;-69
2021/12/29 00:23:58;;;;;;;419.77;116.83;;;;;;;7.78;100.00;99095.88;338527;29;969;-69
2021/12/29 00:24:09;;;;;;;420.98;114.32;;;;;;;7.80;100.00;99090.63;341145;28;1291;-69
2021/12/29 00:24:19;;;;;;;425.57;111.07;;;;;;;7.81;100.00;99094.88;341492;28;903;-69
2021/12/29 00:24:29;;;;;;;426.63;110.10;;;;;;;7.81;100.00;99092.28;341166;28;830;-69
2021/12/29 00:24:40;;;;;;;413.07;110.17;;;;;;;7.83;100.00;99098.28;340070;29;810;-69
2021/12/29 00:24:51;;;;;;;408.05;109.95;;;;;;;7.85;100.00;99096.47;338629;29;846;-69
2021/12/29 00:25:01;;;;;;;405.02;109.78;;;;;;;7.86;100.00;99098.16;338638;29;878;-69
2021/12/29 00:25:12;;;;;;;409.00;111.03;;;;;;;7.84;100.00;99094.78;339835;29;1012;-69
2021/12/29 00:25:22;;;;;;;413.95;111.60;;;;;;;7.85;100.00;99092.09;340070;29;1250;-69
2021/12/29 00:25:33;;;;;;;413.65;113.47;;;;;;;7.85;100.00;99086.06;337321;29;1104;-69
2021/12/29 00:25:43;;;;;;;415.60;112.37;;;;;;;7.86;100.00;99098.16;338518;29;763;-69
2021/12/29 00:25:54;;;;;;;409.83;111.47;;;;;;;7.85;100.00;99096.47;337260;29;853;-69
2021/12/29 00:26:04;;;;;;;407.00;109.07;;;;;;;7.84;100.00;99089.56;337456;29;790;-69
2021/12/29 00:26:15;;;;;;;396.52;109.80;;;;;;;7.85;100.00;99092.09;342235;28;1220;-69
2021/12/29 00:26:29;;;;;;;394.23;110.93;;;;;;;7.84;100.00;99089.56;338880;28;1422;-69
2021/12/29 00:26:39;;;;;;;395.08;111.97;;;;;;;7.80;100.00;99094.03;336891;28;1311;-69
2021/12/29 00:26:49;;;;;;;407.38;112.28;;;;;;;7.78;100.00;99095.88;339713;28;1290;-69
2021/12/29 00:27:00;;;;;;;409.73;113.13;;;;;;;7.78;100.00;99095.03;338674;28;1172;-69
2021/12/29 00:27:10;;;;;;;406.83;111.40;;;;;;;7.77;100.00;99093.34;341341;28;1233;-69
2021/12/29 00:27:21;;;;;;;404.00;111.17;;;;;;;7.75;100.00;99087.34;341017;28;1107;-69
2021/12/29 00:27:31;;;;;;;408.70;112.75;;;;;;;7.72;100.00;99090.91;339888;29;870;-69
2021/12/29 00:27:42;;;;;;;406.37;113.33;;;;;;;7.72;100.00;99090.06;339784;28;1374;-69
2021/12/29 00:27:55;;;;;;;402.65;113.07;;;;;;;7.72;100.00;99095.25;339726;29;863;-69
2021/12/29 00:28:05;;;;;;;401.48;111.53;;;;;;;7.68;100.00;99089.31;338834;29;963;-69
2021/12/29 00:28:16;;;;;;;407.45;111.05;;;;;;;7.67;100.00;99095.44;338619;29;838;-69
2021/12/29 00:28:26;;;;;;;409.13;110.30;;;;;;;7.67;100.00;99088.47;338515;29;846;-69
2021/12/29 00:28:37;;;;;;;417.02;111.68;;;;;;;7.67;100.00;99088.47;337162;29;837;-69
2021/12/29 00:28:47;;;;;;;420.77;114.30;;;;;;;7.66;100.00;99091.97;338639;29;839;-70
2021/12/29 00:29:00;;;;;;;417.40;113.03;;;;;;;7.66;100.00;99088.53;339718;29;886;-69
2021/12/29 00:29:10;;;;;;;420.77;112.20;;;;;;;7.61;100.00;99087.84;341111;28;854;-69
2021/12/29 00:29:21;;;;;;;438.30;114.82;;;;;;;7.63;100.00;99086.03;339864;29;1172;-70
2021/12/29 00:29:31;;;;;;;438.00;114.07;;;;;;;7.66;100.00;99091.97;338619;29;815;-69
2021/12/29 00:29:41;;;;;;;416.60;112.43;;;;;;;7.67;100.00;99088.47;342510;28;1290;-69
2021/12/29 00:29:52;;;;;;;416.20;110.93;;;;;;;7.73;100.00;99091.75;341277;28;848;-69
2021/12/29 00:30:04;;;;;;;408.02;112.75;;;;;;;7.75;100.00;99089.94;341408;28;873;-69
2021/12/29 00:30:15;;;;;;;405.92;114.05;;;;;;;7.77;100.00;99094.19;338628;29;1503;-69
2021/12/29 00:30:25;;;;;;;400.15;113.68;;;;;;;7.80;100.00;99093.22;335781;29;1060;-69
2021/12/29 00:30:36;;;;;;;399.80;111.87;;;;;;;7.79;100.00;99088.91;338354;29;1280;-69
2021/12/29 00:30:46;;;;;;;395.23;110.68;;;;;;;7.81;100.00;99095.75;339475;29;1373;-69
2021/12/29 00:30:56;;;;;;;392.60;109.50;;;;;;;7.83;100.00;99093.06;341207;28;1141;-69
2021/12/29 00:31:07;;;;;;;393.13;109.30;;;;;;;7.82;100.00;99092.22;341211;28;858;-69
2021/12/29 00:31:17;;;;;;;388.30;108.73;;;;;;;7.83;100.00;99090.47;342001;28;854;-69
2021/12/29 00:31:31;;;;;;;391.33;109.83;;;;;;;7.83;100.00;99093.06;339582;28;862;-69
2021/12/29 00:31:41;;;;;;;398.33;112.25;;;;;;;7.80;100.00;99088.84;336150;29;893;-69
2021/12/29 00:31:52;;;;;;;405.55;114.13;;;;;;;7.80;100.00;99090.63;340077;29;893;-69
2021/12/29 00:32:03;;;;;;;404.30;114.65;;;;;;;7.80;100.00;99088.00;341191;28;974;-69
2021/12/29 00:32:13;;;;;;;403.45;114.53;;;;;;;7.77;100.00;99093.34;341067;28;1224;-69
2021/12/29 00:32:24;;;;;;;409.53;112.73;;;;;;;7.74;100.00;99088.25;339833;29;1276;-69
2021/12/29 00:32:34;;;;;;;408.93;113.70;;;;;;;7.73;100.00;99094.34;338714;29;1360;-69
2021/12/29 00:32:45;;;;;;;419.87;115.07;;;;;;;7.73;100.00;99091.75;337111;29;1070;-70
2021/12/29 00:32:58;;;;;;;419.90;117.80;;;;;;;7.71;100.00;99098.78;338340;29;913;-69
2021/12/29 00:33:08;;;;;;;446.83;118.93;;;;;;;7.69;100.00;99093.63;339897;29;1555;-69
2021/12/29 00:33:19;;;;;;;454.17;120.27;;;;;;;7.68;100.00;99091.94;338544;29;798;-68
2021/12/29 00:33:29;;;;;;;462.25;120.93;;;;;;;7.70;100.00;99094.47;341257;28;842;-68
2021/12/29 00:33:39;;;;;;;434.40;120.37;;;;;;;7.69;100.00;99098.84;339801;29;1182;-68
2021/12/29 00:33:50;;;;;;;443.73;119.40;;;;;;;7.68;100.00;99095.38;339586;29;1182;-68
2021/12/29 00:34:00;;;;;;;440.73;117.43;;;;;;;7.71;100.00;99103.97;338674;29;893;-69
2021/12/29 00:34:11;;;;;;;444.03;116.33;;;;;;;7.73;100.00;99096.97;340977;28;1206;-68
2021/12/29 00:34:21;;;;;;;428.25;115.75;;;;;;;7.75;100.00;99095.16;341250;28;952;-68
2021/12/29 00:34:31;;;;;;;423.30;115.60;;;;;;;7.74;100.00;99093.44;341293;28;1599;-68
2021/12/29 00:34:42;;;;;;;433.90;117.70;;;;;;;7.74;100.00;99094.31;338473;28;1217;-68
2021/12/29 00:34:52;;;;;;;439.07;118.57;;;;;;;7.75;100.00;99096.00;339806;29;794;-68
2021/12/29 00:35:03;;;;;;;443.52;119.47;;;;;;;7.78;100.00;99095.03;341436;28;849;-68
2021/12/29 00:35:14;;;;;;;429.30;115.93;;;;;;;7.79;100.00;99097.59;341216;28;1419;-68
2021/12/29 00:35:25;;;;;;;422.80;116.35;;;;;;;7.79;100.00;99092.38;338649;29;807;-68
2021/12/29 00:35:38;;;;;;;422.07;116.57;;;;;;;7.81;100.00;99094.88;335828;29;928;-68
2021/12/29 00:35:48;;;;;;;428.40;117.28;;;;;;;7.83;100.00;99099.13;339883;29;904;-68
2021/12/29 00:35:59;;;;;;;432.63;117.17;;;;;;;7.84;100.00;99095.63;339677;29;870;-68
2021/12/29 00:36:09;;;;;;;424.50;118.13;;;;;;;7.85;100.00;99096.47;338745;29;861;-68
2021/12/29 00:36:19;;;;;;;426.00;119.57;;;;;;;7.85;100.00;99093.88;338822;29;834;-68
2021/12/29 00:36:30;;;;;;;429.93;121.53;;;;;;;7.87;100.00;99094.66;335283;29;902;-69
2021/12/29 00:36:40;;;;;;;435.08;123.60;;;;;;;7.87;100.00;99098.13;338130;28;1312;-69
2021/12/29 00:36:51;;;;;;;438.60;123.33;;;;;;;7.88;100.00;99096.34;339947;29;1302;-69
2021/12/29 00:37:01;;;;;;;422.55;119.68;;;;;;;7.89;100.00;99098.06;341018;28;929;-68
2021/12/29 00:37:11;;;;;;;411.77;114.80;;;;;;;7.85;100.00;99093.88;339728;28;1197;-68
2021/12/29 00:37:22;;;;;;;411.38;113.30;;;;;;;7.82;100.00;99088.78;338549;29;1206;-68
2021/12/29 00:37:32;;;;;;;413.03;112.17;;;;;;;7.82;100.00;99091.38;339602;29;1373;-68
2021/12/29 00:37:42;;;;;;;407.70;110.97;;;;;;;7.83;100.00;99095.69;341444;28;1371;-68
2021/12/29 00:37:53;;;;;;;396.17;110.23;;;;;;;7.81;100.00;99090.53;339652;29;1185;-69
2021/12/29 00:38:05;;;;;;;398.87;110.43;;;;;;;7.79;100.00;99094.13;339746;29;939;-69
2021/12/29 00:38:15;;;;;;;403.67;110.28;;;;;;;7.75;100.00;99089.94;338235;29;1317;-69
2021/12/29 00:38:26;;;;;;;406.83;109.25;;;;;;;7.75;100.00;99089.94;340067;29;878;-69
2021/12/29 00:38:36;;;;;;;400.20;109.30;;;;;;;7.77;100.00;99095.94;341206;28;1271;-69
2021/12/29 00:38:47;;;;;;;402.35;110.90;;;;;;;7.74;100.00;99090.84;342350;28;802;-69
2021/12/29 00:38:57;;;;;;;402.48;112.32;;;;;;;7.73;100.00;99092.59;339668;29;819;-69
2021/12/29 00:39:07;;;;;;;407.23;114.60;;;;;;;7.70;100.00;99097.06;339804;29;921;-69
2021/12/29 00:39:18;;;;;;;407.23;113.70;;;;;;;7.71;100.00;99096.16;339785;29;1096;-69
2021/12/29 00:39:28;;;;;;;423.45;114.60;;;;;;;7.69;100.00;99091.03;341205;28;1301;-69
2021/12/29 00:39:39;;;;;;;422.27;111.80;;;;;;;7.71;100.00;99088.34;339845;29;1381;-69
2021/12/29 00:39:49;;;;;;;418.92;111.53;;;;;;;7.67;100.00;99091.06;340925;28;1205;-69
2021/12/29 00:39:59;;;;;;;409.43;112.07;;;;;;;7.65;100.00;99092.88;341069;28;805;-69
2021/12/29 00:40:10;;;;;;;414.33;114.35;;;;;;;7.65;100.00;99085.06;339951;29;1098;-69
2021/12/29 00:40:20;;;;;;;421.50;113.97;;;;;;;7.67;100.00;99085.88;338442;29;1114;-68
2021/12/29 00:40:31;;;;;;;420.77;113.63;;;;;;;7.66;100.00;99093.72;341138;28;912;-69
2021/12/29 00:40:41;;;;;;;418.30;114.03;;;;;;;7.66;100.00;99091.97;340074;29;1070;-68
2021/12/29 00:40:52;;;;;;;413.48;114.93;;;;;;;7.67;100.00;99093.69;339781;29;958;-69
2021/12/29 00:41:02;;;;;;;418.60;113.57;;;;;;;7.68;100.00;99090.16;339710;29;868;-70
2021/12/29 00:41:13;;;;;;;415.30;113.30;;;;;;;7.66;100.00;99089.38;338476;29;1221;-69
2021/12/29 00:41:24;;;;;;;416.35;113.13;;;;;;;7.66;100.00;99097.19;335394;29;1222;-69
2021/12/29 00:41:34;;;;;;;411.88;111.95;;;;;;;7.67;100.00;99088.47;337933;29;833;-68
2021/12/29 00:41:45;;;;;;;409.90;112.87;;;;;;;7.66;100.00;99086.78;339047;29;920;-68
2021/12/29 00:41:55;;;;;;;431.00;113.40;;;;;;;7.65;100.00;99085.06;339778;29;1918;-68
2021/12/29 00:42:05;;;;;;;427.65;113.68;;;;;;;7.64;100.00;99088.59;339726;28;1775;-68
2021/12/29 00:42:16;;;;;;;415.97;111.53;;;;;;;7.65;100.00;99097.25;339828;29;1010;-68
2021/12/29 00:42:26;;;;;;;393.33;109.60;;;;;;;7.66;100.00;99091.13;339336;29;1332;-69
2021/12/29 00:42:38;;;;;;;392.33;108.80;;;;;;;7.67;100.00;99093.69;339766;29;825;-69
2021/12/29 00:42:48;;;;;;;394.33;108.63;;;;;;;7.68;100.00;99090.16;342630;28;777;-69
2021/12/29 00:42:58;;;;;;;394.00;107.43;;;;;;;7.71;100.00;99088.34;341095;28;933;-69
2021/12/29 00:43:09;;;;;;;392.25;107.57;;;;;;;7.73;100.00;99086.53;341065;28;1412;-69
2021/12/29 00:43:19;;;;;;;386.73;106.27;;;;;;;7.72;100.00;99082.25;338259;29;1181;-69
2021/12/29 00:43:30;;;;;;;389.60;106.43;;;;;;;7.70;100.00;99081.44;338351;29;838;-69
2021/12/29 00:43:40;;;;;;;396.50;107.60;;;;;;;7.66;100.00;99086.78;341391;28;876;-69
2021/12/29 00:43:51;;;;;;;404.60;109.68;;;;;;;7.66;100.00;99081.56;341096;28;1384;-68
2021/12/29 00:44:02;;;;;;;392.42;107.82;;;;;;;7.66;100.00;99081.56;341019;28;1284;-68
2021/12/29 00:44:12;;;;;;;392.97;107.40;;;;;;;7.66;100.00;99083.31;341252;28;814;-68
2021/12/29 00:44:23;;;;;;;402.45;108.88;;;;;;;7.63;100.00;99086.88;339805;29;944;-68
2021/12/29 00:44:34;;;;;;;409.98;111.10;;;;;;;7.64;100.00;99088.59;339615;29;869;-68
2021/12/29 00:44:44;;;;;;;410.25;110.85;;;;;;;7.66;100.00;99086.78;336874;29;1280;-68
2021/12/29 00:44:55;;;;;;;406.27;110.90;;;;;;;7.65;100.00;99082.47;339997;29;1194;-68
2021/12/29 00:45:06;;;;;;;408.13;113.13;;;;;;;7.66;100.00;99086.78;338587;29;826;-68
2021/12/29 00:45:17;;;;;;;406.50;114.20;;;;;;;7.66;100.00;99081.56;338621;29;936;-69
2021/12/29 00:45:31;;;;;;;401.92;113.05;;;;;;;7.66;100.00;99081.56;340977;28;1350;-69
2021/12/29 00:45:41;;;;;;;394.35;110.00;;;;;;;7.68;100.00;99084.13;341171;28;1338;-69
2021/12/29 00:45:52;;;;;;;386.73;109.77;;;;;;;7.71;100.00;99080.53;339654;29;1002;-69
2021/12/29 00:46:02;;;;;;;392.48;109.63;;;;;;;7.72;100.00;99080.50;338212;29;886;-69
2021/12/29 00:46:14;;;;;;;392.07;109.50;;;;;;;7.72;100.00;99079.63;338788;29;849;-68
2021/12/29 00:46:24;;;;;;;390.70;110.25;;;;;;;7.70;100.00;99084.06;338121;29;1375;-69
2021/12/29 00:46:38;;;;;;;385.53;110.87;;;;;;;7.66;100.00;99081.56;336559;29;925;-69
2021/12/29 00:46:52;;;;;;;388.35;110.85;;;;;;;7.66;100.00;99086.78;339671;29;860;-69
2021/12/29 00:47:03;;;;;;;388.30;108.53;;;;;;;7.70;100.00;99086.66;339919;29;952;-69
2021/12/29 00:47:13;;;;;;;384.13;107.47;;;;;;;7.72;100.00;99082.25;339662;29;991;-69
2021/12/29 00:47:24;;;;;;;380.20;107.13;;;;;;;7.70;100.00;99082.31;339727;29;1065;-69
2021/12/29 00:47:36;;;;;;;381.83;107.10;;;;;;;7.72;100.00;99082.25;340126;29;849;-69
2021/12/29 00:47:48;;;;;;;385.40;107.47;;;;;;;7.73;100.00;99086.53;337263;29;854;-69
2021/12/29 00:47:58;;;;;;;381.15;107.22;;;;;;;7.75;100.00;99087.34;337283;29;836;-69
2021/12/29 00:48:11;;;;;;;380.23;108.00;;;;;;;7.78;100.00;99095.03;341094;28;908;-69
2021/12/29 00:48:24;;;;;;;373.30;105.53;;;;;;;7.79;100.00;99086.31;341227;28;877;-69
2021/12/29 00:48:38;;;;;;;373.83;104.93;;;;;;;7.79;100.00;99081.09;342296;28;905;-68
2021/12/29 00:48:48;;;;;;;388.80;107.30;;;;;;;7.81;100.00;99094.88;341343;28;952;-69
2021/12/29 00:48:58;;;;;;;396.20;108.33;;;;;;;7.81;100.00;99094.88;339705;28;1378;-69
2021/12/29 00:49:09;;;;;;;390.33;107.50;;;;;;;7.82;100.00;99091.38;342401;28;897;-69
2021/12/29 00:49:20;;;;;;;394.53;108.20;;;;;;;7.80;100.00;99088.84;341404;28;814;-69
2021/12/29 00:49:33;;;;;;;396.77;108.43;;;;;;;7.79;100.00;99091.53;338269;29;900;-69
2021/12/29 00:49:46;;;;;;;390.80;108.68;;;;;;;7.76;100.00;99089.88;339813;29;906;-69
2021/12/29 00:49:58;;;;;;;379.30;107.95;;;;;;;7.76;100.00;99083.81;340899;28;944;-68
2021/12/29 00:50:13;;;;;;;371.83;108.38;;;;;;;7.75;100.00;99085.59;340899;28;872;-69
2021/12/29 00:50:24;;;;;;;371.05;108.70;;;;;;;7.77;100.00;99088.13;339756;29;849;-69
2021/12/29 00:50:34;;;;;;;368.77;106.50;;;;;;;7.80;100.00;99088.00;341220;28;1171;-69